sensor_id;sensor_type;location;lat;lon;timestamp;P1;durP1;ratioP1;P2;durP2;ratioP2
45620;SDS011;31345;51.522;10.702;2023-05-10T00:02:00;5.97;;;4.63;;
45620;SDS011;31345;51.522;10.702;2023-05-10T00:04:32;7.03;;;4.57;;
45620;SDS011;31345;51.522;10.702;2023-05-10T00:07:05;9.98;;;4.97;;
45620;SDS011;31345;51.522;10.702;2023-05-10T00:09:37;7.75;;;5.40;;
45620;SDS011;31345;51.522;10.702;2023-05-10T00:12:07;8.02;;;5.15;;
45620;SDS011;31345;51.522;10.702;2023-05-10T00:14:34;8.00;;;4.43;;
45620;SDS011;31345;51.522;10.702;2023-05-10T00:17:07;6.47;;;4.78;;
45620;SDS011;31345;51.522;10.702;2023-05-10T00:19:39;9.63;;;5.03;;
45620;SDS011;31345;51.522;10.702;2023-05-10T00:22:07;9.80;;;5.45;;
45620;SDS011;31345;51.522;10.702;2023-05-10T00:24:34;6.72;;;4.55;;
45620;SDS011;31345;51.522;10.702;2023-05-10T00:27:02;6.32;;;4.55;;
45620;SDS011;31345;51.522;10.702;2023-05-10T00:29:31;7.28;;;4.70;;
45620;SDS011;31345;51.522;10.702;2023-05-10T00:31:59;8.00;;;4.72;;
45620;SDS011;31345;51.522;10.702;2023-05-10T00:34:32;6.53;;;4.68;;
45620;SDS011;31345;51.522;10.702;2023-05-10T00:36:59;8.07;;;4.80;;
45620;SDS011;31345;51.522;10.702;2023-05-10T00:39:27;7.20;;;4.75;;
45620;SDS011;31345;51.522;10.702;2023-05-10T00:41:59;6.90;;;4.60;;
45620;SDS011;31345;51.522;10.702;2023-05-10T00:44:28;8.57;;;5.03;;
45620;SDS011;31345;51.522;10.702;2023-05-10T00:46:58;6.97;;;5.15;;
45620;SDS011;31345;51.522;10.702;2023-05-10T00:49:26;4.90;;;4.40;;
45620;SDS011;31345;51.522;10.702;2023-05-10T00:51:59;6.85;;;4.53;;
45620;SDS011;31345;51.522;10.702;2023-05-10T00:54:32;9.50;;;5.45;;
45620;SDS011;31345;51.522;10.702;2023-05-10T00:57:05;6.68;;;4.70;;
45620;SDS011;31345;51.522;10.702;2023-05-10T00:59:38;9.48;;;5.40;;
45620;SDS011;31345;51.522;10.702;2023-05-10T01:02:12;8.02;;;4.53;;
45620;SDS011;31345;51.522;10.702;2023-05-10T01:04:45;8.38;;;5.00;;
45620;SDS011;31345;51.522;10.702;2023-05-10T01:07:13;6.93;;;5.18;;
45620;SDS011;31345;51.522;10.702;2023-05-10T01:09:41;5.00;;;4.50;;
45620;SDS011;31345;51.522;10.702;2023-05-10T01:12:08;7.30;;;5.22;;
45620;SDS011;31345;51.522;10.702;2023-05-10T01:14:36;6.38;;;5.28;;
45620;SDS011;31345;51.522;10.702;2023-05-10T01:17:04;7.05;;;5.28;;
45620;SDS011;31345;51.522;10.702;2023-05-10T01:19:39;7.47;;;5.45;;
45620;SDS011;31345;51.522;10.702;2023-05-10T01:22:11;9.63;;;5.30;;
45620;SDS011;31345;51.522;10.702;2023-05-10T01:25:19;9.23;;;5.78;;
45620;SDS011;31345;51.522;10.702;2023-05-10T01:28:08;7.97;;;5.30;;
45620;SDS011;31345;51.522;10.702;2023-05-10T01:31:02;6.82;;;5.50;;
45620;SDS011;31345;51.522;10.702;2023-05-10T01:33:38;7.75;;;5.05;;
45620;SDS011;31345;51.522;10.702;2023-05-10T01:36:16;7.75;;;5.55;;
45620;SDS011;31345;51.522;10.702;2023-05-10T01:38:53;6.65;;;5.10;;
45620;SDS011;31345;51.522;10.702;2023-05-10T01:41:27;7.07;;;5.45;;
45620;SDS011;31345;51.522;10.702;2023-05-10T01:44:02;7.45;;;5.57;;
45620;SDS011;31345;51.522;10.702;2023-05-10T01:46:51;11.13;;;5.68;;
45620;SDS011;31345;51.522;10.702;2023-05-10T01:49:28;7.30;;;4.95;;
45620;SDS011;31345;51.522;10.702;2023-05-10T01:52:00;8.65;;;5.15;;
45620;SDS011;31345;51.522;10.702;2023-05-10T01:54:33;9.65;;;5.85;;
45620;SDS011;31345;51.522;10.702;2023-05-10T01:57:07;6.65;;;5.15;;
45620;SDS011;31345;51.522;10.702;2023-05-10T01:59:43;5.90;;;4.63;;
45620;SDS011;31345;51.522;10.702;2023-05-10T02:02:16;6.35;;;5.40;;
45620;SDS011;31345;51.522;10.702;2023-05-10T02:04:47;8.75;;;5.07;;
45620;SDS011;31345;51.522;10.702;2023-05-10T02:07:17;5.85;;;4.80;;
45620;SDS011;31345;51.522;10.702;2023-05-10T02:09:46;6.35;;;5.35;;
45620;SDS011;31345;51.522;10.702;2023-05-10T02:12:15;6.60;;;5.28;;
45620;SDS011;31345;51.522;10.702;2023-05-10T02:14:44;6.78;;;5.53;;
45620;SDS011;31345;51.522;10.702;2023-05-10T02:17:12;8.23;;;5.85;;
45620;SDS011;31345;51.522;10.702;2023-05-10T02:19:48;6.82;;;5.18;;
45620;SDS011;31345;51.522;10.702;2023-05-10T02:22:18;7.88;;;5.15;;
45620;SDS011;31345;51.522;10.702;2023-05-10T02:24:52;7.80;;;5.30;;
45620;SDS011;31345;51.522;10.702;2023-05-10T02:27:22;6.90;;;5.70;;
45620;SDS011;31345;51.522;10.702;2023-05-10T02:29:51;9.07;;;4.97;;
45620;SDS011;31345;51.522;10.702;2023-05-10T02:32:21;6.68;;;5.15;;
45620;SDS011;31345;51.522;10.702;2023-05-10T02:34:52;7.07;;;5.30;;
45620;SDS011;31345;51.522;10.702;2023-05-10T02:37:25;7.72;;;5.05;;
45620;SDS011;31345;51.522;10.702;2023-05-10T02:39:54;7.45;;;5.50;;
45620;SDS011;31345;51.522;10.702;2023-05-10T02:42:24;7.22;;;4.57;;
45620;SDS011;31345;51.522;10.702;2023-05-10T02:44:59;7.93;;;4.78;;
45620;SDS011;31345;51.522;10.702;2023-05-10T02:47:28;5.88;;;4.93;;
45620;SDS011;31345;51.522;10.702;2023-05-10T02:49:57;7.15;;;5.32;;
45620;SDS011;31345;51.522;10.702;2023-05-10T02:52:25;6.40;;;5.25;;
45620;SDS011;31345;51.522;10.702;2023-05-10T02:55:00;7.68;;;5.18;;
45620;SDS011;31345;51.522;10.702;2023-05-10T02:57:31;6.35;;;5.07;;
45620;SDS011;31345;51.522;10.702;2023-05-10T03:00:01;6.75;;;5.70;;
45620;SDS011;31345;51.522;10.702;2023-05-10T03:02:34;7.50;;;5.00;;
45620;SDS011;31345;51.522;10.702;2023-05-10T03:05:09;8.63;;;5.88;;
45620;SDS011;31345;51.522;10.702;2023-05-10T03:07:37;8.90;;;5.15;;
45620;SDS011;31345;51.522;10.702;2023-05-10T03:10:09;6.45;;;5.30;;
45620;SDS011;31345;51.522;10.702;2023-05-10T03:12:45;7.72;;;5.47;;
45620;SDS011;31345;51.522;10.702;2023-05-10T03:15:22;8.82;;;5.57;;
45620;SDS011;31345;51.522;10.702;2023-05-10T03:18:04;7.18;;;5.88;;
45620;SDS011;31345;51.522;10.702;2023-05-10T03:20:41;7.45;;;5.50;;
45620;SDS011;31345;51.522;10.702;2023-05-10T03:23:12;6.72;;;5.80;;
45620;SDS011;31345;51.522;10.702;2023-05-10T03:25:49;10.00;;;6.55;;
45620;SDS011;31345;51.522;10.702;2023-05-10T03:28:23;9.18;;;6.63;;
45620;SDS011;31345;51.522;10.702;2023-05-10T03:30:57;8.93;;;6.57;;
45620;SDS011;31345;51.522;10.702;2023-05-10T03:33:26;8.57;;;6.40;;
45620;SDS011;31345;51.522;10.702;2023-05-10T03:36:04;8.70;;;6.15;;
45620;SDS011;31345;51.522;10.702;2023-05-10T03:38:35;9.20;;;6.70;;
45620;SDS011;31345;51.522;10.702;2023-05-10T03:41:07;9.80;;;7.20;;
45620;SDS011;31345;51.522;10.702;2023-05-10T03:43:38;9.65;;;6.63;;
45620;SDS011;31345;51.522;10.702;2023-05-10T03:46:13;10.57;;;7.38;;
45620;SDS011;31345;51.522;10.702;2023-05-10T03:51:38;9.88;;;7.18;;
45620;SDS011;31345;51.522;10.702;2023-05-10T03:54:10;10.00;;;7.55;;
45620;SDS011;31345;51.522;10.702;2023-05-10T03:56:43;10.68;;;6.65;;
45620;SDS011;31345;51.522;10.702;2023-05-10T03:59:15;13.45;;;7.82;;
45620;SDS011;31345;51.522;10.702;2023-05-10T04:01:43;10.38;;;7.38;;
45620;SDS011;31345;51.522;10.702;2023-05-10T04:04:15;8.05;;;6.68;;
45620;SDS011;31345;51.522;10.702;2023-05-10T04:06:45;9.18;;;7.38;;
45620;SDS011;31345;51.522;10.702;2023-05-10T04:09:18;8.95;;;6.90;;
45620;SDS011;31345;51.522;10.702;2023-05-10T04:11:50;10.82;;;7.35;;
45620;SDS011;31345;51.522;10.702;2023-05-10T04:14:23;8.57;;;6.85;;
45620;SDS011;31345;51.522;10.702;2023-05-10T04:19:50;10.10;;;6.97;;
45620;SDS011;31345;51.522;10.702;2023-05-10T04:22:21;12.27;;;6.70;;
45620;SDS011;31345;51.522;10.702;2023-05-10T04:24:49;10.13;;;6.90;;
45620;SDS011;31345;51.522;10.702;2023-05-10T04:27:16;10.18;;;8.02;;
45620;SDS011;31345;51.522;10.702;2023-05-10T04:29:49;9.75;;;7.50;;
45620;SDS011;31345;51.522;10.702;2023-05-10T04:32:16;10.90;;;7.45;;
45620;SDS011;31345;51.522;10.702;2023-05-10T04:34:44;9.05;;;7.05;;
45620;SDS011;31345;51.522;10.702;2023-05-10T04:37:17;9.65;;;6.78;;
45620;SDS011;31345;51.522;10.702;2023-05-10T04:39:52;8.45;;;6.90;;
45620;SDS011;31345;51.522;10.702;2023-05-10T04:42:19;10.95;;;7.75;;
45620;SDS011;31345;51.522;10.702;2023-05-10T04:44:46;9.10;;;6.65;;
45620;SDS011;31345;51.522;10.702;2023-05-10T04:47:19;9.52;;;6.95;;
45620;SDS011;31345;51.522;10.702;2023-05-10T04:49:46;9.35;;;6.97;;
45620;SDS011;31345;51.522;10.702;2023-05-10T04:52:19;13.57;;;7.20;;
45620;SDS011;31345;51.522;10.702;2023-05-10T04:54:53;10.90;;;7.93;;
45620;SDS011;31345;51.522;10.702;2023-05-10T04:57:20;11.27;;;7.53;;
45620;SDS011;31345;51.522;10.702;2023-05-10T04:59:53;11.80;;;7.32;;
45620;SDS011;31345;51.522;10.702;2023-05-10T05:02:25;8.25;;;7.00;;
45620;SDS011;31345;51.522;10.702;2023-05-10T05:04:55;12.38;;;7.60;;
45620;SDS011;31345;51.522;10.702;2023-05-10T05:07:28;11.70;;;7.60;;
45620;SDS011;31345;51.522;10.702;2023-05-10T05:09:58;11.10;;;7.05;;
45620;SDS011;31345;51.522;10.702;2023-05-10T05:12:25;7.88;;;6.32;;
45620;SDS011;31345;51.522;10.702;2023-05-10T05:14:58;10.32;;;6.63;;
45620;SDS011;31345;51.522;10.702;2023-05-10T05:17:30;9.90;;;5.65;;
45620;SDS011;31345;51.522;10.702;2023-05-10T05:19:58;8.27;;;6.20;;
45620;SDS011;31345;51.522;10.702;2023-05-10T05:22:30;8.52;;;6.20;;
45620;SDS011;31345;51.522;10.702;2023-05-10T05:24:59;11.00;;;6.05;;
45620;SDS011;31345;51.522;10.702;2023-05-10T05:27:28;10.88;;;6.03;;
45620;SDS011;31345;51.522;10.702;2023-05-10T05:30:01;8.77;;;5.97;;
45620;SDS011;31345;51.522;10.702;2023-05-10T05:32:28;8.27;;;5.93;;
45620;SDS011;31345;51.522;10.702;2023-05-10T05:35:01;8.20;;;5.63;;
45620;SDS011;31345;51.522;10.702;2023-05-10T05:37:28;8.68;;;6.00;;
45620;SDS011;31345;51.522;10.702;2023-05-10T05:39:56;6.72;;;5.57;;
45620;SDS011;31345;51.522;10.702;2023-05-10T05:42:30;8.65;;;6.22;;
45620;SDS011;31345;51.522;10.702;2023-05-10T05:44:58;7.43;;;5.47;;
45620;SDS011;31345;51.522;10.702;2023-05-10T05:47:27;8.65;;;5.28;;
45620;SDS011;31345;51.522;10.702;2023-05-10T05:49:59;8.48;;;5.10;;
45620;SDS011;31345;51.522;10.702;2023-05-10T05:52:27;8.13;;;5.75;;
45620;SDS011;31345;51.522;10.702;2023-05-10T05:55:00;6.72;;;5.22;;
45620;SDS011;31345;51.522;10.702;2023-05-10T05:57:34;8.25;;;5.75;;
45620;SDS011;31345;51.522;10.702;2023-05-10T06:00:07;6.82;;;5.60;;
45620;SDS011;31345;51.522;10.702;2023-05-10T06:02:39;8.05;;;5.50;;
45620;SDS011;31345;51.522;10.702;2023-05-10T06:05:12;7.63;;;5.88;;
45620;SDS011;31345;51.522;10.702;2023-05-10T06:07:46;7.68;;;5.88;;
45620;SDS011;31345;51.522;10.702;2023-05-10T06:10:13;9.25;;;6.40;;
45620;SDS011;31345;51.522;10.702;2023-05-10T06:12:48;9.68;;;6.47;;
45620;SDS011;31345;51.522;10.702;2023-05-10T06:15:22;14.63;;;7.70;;
45620;SDS011;31345;51.522;10.702;2023-05-10T06:17:55;11.18;;;6.10;;
45620;SDS011;31345;51.522;10.702;2023-05-10T06:20:23;13.85;;;6.88;;
45620;SDS011;31345;51.522;10.702;2023-05-10T06:22:50;10.52;;;6.43;;
45620;SDS011;31345;51.522;10.702;2023-05-10T06:25:18;10.00;;;6.95;;
45620;SDS011;31345;51.522;10.702;2023-05-10T06:27:45;10.25;;;6.88;;
45620;SDS011;31345;51.522;10.702;2023-05-10T06:30:14;10.52;;;7.15;;
45620;SDS011;31345;51.522;10.702;2023-05-10T06:32:42;13.18;;;7.60;;
45620;SDS011;31345;51.522;10.702;2023-05-10T06:35:16;13.30;;;8.18;;
45620;SDS011;31345;51.522;10.702;2023-05-10T06:37:43;12.35;;;8.05;;
45620;SDS011;31345;51.522;10.702;2023-05-10T06:40:17;10.48;;;6.85;;
45620;SDS011;31345;51.522;10.702;2023-05-10T06:42:45;10.25;;;7.13;;
45620;SDS011;31345;51.522;10.702;2023-05-10T06:45:19;10.82;;;6.70;;
45620;SDS011;31345;51.522;10.702;2023-05-10T06:47:46;9.13;;;6.90;;
45620;SDS011;31345;51.522;10.702;2023-05-10T06:50:14;9.40;;;6.93;;
45620;SDS011;31345;51.522;10.702;2023-05-10T06:52:41;7.70;;;6.40;;
45620;SDS011;31345;51.522;10.702;2023-05-10T06:55:14;10.18;;;7.22;;
45620;SDS011;31345;51.522;10.702;2023-05-10T06:57:41;13.02;;;7.30;;
45620;SDS011;31345;51.522;10.702;2023-05-10T07:00:14;11.85;;;7.55;;
45620;SDS011;31345;51.522;10.702;2023-05-10T07:02:44;10.20;;;7.85;;
45620;SDS011;31345;51.522;10.702;2023-05-10T07:05:16;13.13;;;7.78;;
45620;SDS011;31345;51.522;10.702;2023-05-10T07:07:49;9.32;;;7.75;;
45620;SDS011;31345;51.522;10.702;2023-05-10T07:10:22;11.23;;;7.85;;
45620;SDS011;31345;51.522;10.702;2023-05-10T07:12:50;10.60;;;7.50;;
45620;SDS011;31345;51.522;10.702;2023-05-10T07:15:22;12.02;;;7.93;;
45620;SDS011;31345;51.522;10.702;2023-05-10T07:17:56;11.98;;;8.32;;
45620;SDS011;31345;51.522;10.702;2023-05-10T07:20:28;8.70;;;7.55;;
45620;SDS011;31345;51.522;10.702;2023-05-10T07:22:56;9.77;;;7.45;;
45620;SDS011;31345;51.522;10.702;2023-05-10T07:25:28;13.68;;;7.72;;
45620;SDS011;31345;51.522;10.702;2023-05-10T07:27:56;11.10;;;7.80;;
45620;SDS011;31345;51.522;10.702;2023-05-10T07:30:28;11.13;;;7.15;;
45620;SDS011;31345;51.522;10.702;2023-05-10T07:32:58;8.88;;;7.47;;
45620;SDS011;31345;51.522;10.702;2023-05-10T07:35:30;8.32;;;7.30;;
45620;SDS011;31345;51.522;10.702;2023-05-10T07:38:03;9.00;;;7.13;;
45620;SDS011;31345;51.522;10.702;2023-05-10T07:40:30;15.38;;;7.90;;
45620;SDS011;31345;51.522;10.702;2023-05-10T07:43:03;11.25;;;7.85;;
45620;SDS011;31345;51.522;10.702;2023-05-10T07:45:31;12.77;;;8.45;;
45620;SDS011;31345;51.522;10.702;2023-05-10T07:47:59;10.73;;;8.27;;
45620;SDS011;31345;51.522;10.702;2023-05-10T07:50:32;9.38;;;7.65;;
45620;SDS011;31345;51.522;10.702;2023-05-10T07:53:00;8.77;;;6.95;;
45620;SDS011;31345;51.522;10.702;2023-05-10T07:55:27;9.75;;;7.88;;
45620;SDS011;31345;51.522;10.702;2023-05-10T07:57:59;10.38;;;7.97;;
45620;SDS011;31345;51.522;10.702;2023-05-10T08:00:32;9.73;;;7.60;;
45620;SDS011;31345;51.522;10.702;2023-05-10T08:03:07;8.23;;;6.90;;
45620;SDS011;31345;51.522;10.702;2023-05-10T08:05:34;8.38;;;6.57;;
45620;SDS011;31345;51.522;10.702;2023-05-10T08:08:07;8.48;;;7.35;;
45620;SDS011;31345;51.522;10.702;2023-05-10T08:10:39;7.38;;;6.45;;
45620;SDS011;31345;51.522;10.702;2023-05-10T08:13:12;8.55;;;6.85;;
45620;SDS011;31345;51.522;10.702;2023-05-10T08:15:39;10.73;;;7.10;;
45620;SDS011;31345;51.522;10.702;2023-05-10T08:18:13;8.90;;;7.30;;
45620;SDS011;31345;51.522;10.702;2023-05-10T08:20:41;9.63;;;7.32;;
45620;SDS011;31345;51.522;10.702;2023-05-10T08:23:08;7.38;;;6.63;;
45620;SDS011;31345;51.522;10.702;2023-05-10T08:25:36;8.43;;;6.90;;
45620;SDS011;31345;51.522;10.702;2023-05-10T08:28:03;11.35;;;6.85;;
45620;SDS011;31345;51.522;10.702;2023-05-10T08:30:36;8.98;;;6.90;;
45620;SDS011;31345;51.522;10.702;2023-05-10T08:33:08;8.88;;;7.28;;
45620;SDS011;31345;51.522;10.702;2023-05-10T08:35:37;11.45;;;7.50;;
45620;SDS011;31345;51.522;10.702;2023-05-10T08:38:05;8.77;;;7.28;;
45620;SDS011;31345;51.522;10.702;2023-05-10T08:40:32;9.65;;;7.43;;
45620;SDS011;31345;51.522;10.702;2023-05-10T08:43:07;9.88;;;7.32;;
45620;SDS011;31345;51.522;10.702;2023-05-10T08:45:41;8.10;;;6.75;;
45620;SDS011;31345;51.522;10.702;2023-05-10T08:48:18;9.20;;;7.65;;
45620;SDS011;31345;51.522;10.702;2023-05-10T08:50:53;13.43;;;7.78;;
45620;SDS011;31345;51.522;10.702;2023-05-10T08:53:27;9.10;;;7.45;;
45620;SDS011;31345;51.522;10.702;2023-05-10T08:56:03;9.45;;;7.40;;
45620;SDS011;31345;51.522;10.702;2023-05-10T08:58:31;10.50;;;7.40;;
45620;SDS011;31345;51.522;10.702;2023-05-10T09:00:59;7.68;;;6.80;;
45620;SDS011;31345;51.522;10.702;2023-05-10T09:03:27;8.73;;;7.50;;
45620;SDS011;31345;51.522;10.702;2023-05-10T09:06:01;7.95;;;6.68;;
45620;SDS011;31345;51.522;10.702;2023-05-10T09:08:34;10.13;;;7.50;;
45620;SDS011;31345;51.522;10.702;2023-05-10T09:11:08;9.85;;;7.10;;
45620;SDS011;31345;51.522;10.702;2023-05-10T09:13:42;10.30;;;8.05;;
45620;SDS011;31345;51.522;10.702;2023-05-10T09:16:15;10.05;;;7.53;;
45620;SDS011;31345;51.522;10.702;2023-05-10T09:18:47;9.73;;;8.00;;
45620;SDS011;31345;51.522;10.702;2023-05-10T09:21:22;12.20;;;8.43;;
45620;SDS011;31345;51.522;10.702;2023-05-10T09:23:54;8.40;;;6.43;;
45620;SDS011;31345;51.522;10.702;2023-05-10T09:26:22;8.05;;;6.82;;
45620;SDS011;31345;51.522;10.702;2023-05-10T09:28:56;8.68;;;6.57;;
45620;SDS011;31345;51.522;10.702;2023-05-10T09:31:25;6.75;;;5.50;;
45620;SDS011;31345;51.522;10.702;2023-05-10T09:34:10;5.85;;;4.82;;
45620;SDS011;31345;51.522;10.702;2023-05-10T09:36:55;7.00;;;5.25;;
45620;SDS011;31345;51.522;10.702;2023-05-10T09:39:30;7.70;;;6.28;;
45620;SDS011;31345;51.522;10.702;2023-05-10T09:41:58;7.32;;;5.72;;
45620;SDS011;31345;51.522;10.702;2023-05-10T09:44:32;8.05;;;6.53;;
45620;SDS011;31345;51.522;10.702;2023-05-10T09:47:00;7.22;;;5.75;;
45620;SDS011;31345;51.522;10.702;2023-05-10T09:49:33;6.30;;;5.43;;
45620;SDS011;31345;51.522;10.702;2023-05-10T09:52:07;6.78;;;5.68;;
45620;SDS011;31345;51.522;10.702;2023-05-10T09:54:42;8.35;;;5.63;;
45620;SDS011;31345;51.522;10.702;2023-05-10T09:57:20;9.68;;;5.53;;
45620;SDS011;31345;51.522;10.702;2023-05-10T09:59:48;7.80;;;6.68;;
45620;SDS011;31345;51.522;10.702;2023-05-10T10:02:22;8.32;;;6.57;;
45620;SDS011;31345;51.522;10.702;2023-05-10T10:04:57;7.93;;;6.50;;
45620;SDS011;31345;51.522;10.702;2023-05-10T10:07:27;8.23;;;6.63;;
45620;SDS011;31345;51.522;10.702;2023-05-10T10:09:55;6.47;;;5.72;;
45620;SDS011;31345;51.522;10.702;2023-05-10T10:12:23;6.55;;;5.28;;
45620;SDS011;31345;51.522;10.702;2023-05-10T10:14:53;6.60;;;5.50;;
45620;SDS011;31345;51.522;10.702;2023-05-10T10:17:21;7.53;;;5.43;;
45620;SDS011;31345;51.522;10.702;2023-05-10T10:20:01;8.10;;;5.07;;
45620;SDS011;31345;51.522;10.702;2023-05-10T10:22:32;7.10;;;5.25;;
45620;SDS011;31345;51.522;10.702;2023-05-10T10:25:00;6.72;;;5.10;;
45620;SDS011;31345;51.522;10.702;2023-05-10T10:27:31;7.28;;;5.40;;
45620;SDS011;31345;51.522;10.702;2023-05-10T10:30:12;6.30;;;5.18;;
45620;SDS011;31345;51.522;10.702;2023-05-10T10:33:01;6.22;;;5.00;;
45620;SDS011;31345;51.522;10.702;2023-05-10T10:35:51;5.30;;;4.32;;
45620;SDS011;31345;51.522;10.702;2023-05-10T10:38:22;5.32;;;4.63;;
45620;SDS011;31345;51.522;10.702;2023-05-10T10:40:57;4.43;;;3.53;;
45620;SDS011;31345;51.522;10.702;2023-05-10T10:43:30;5.30;;;3.53;;
45620;SDS011;31345;51.522;10.702;2023-05-10T10:46:11;6.90;;;4.13;;
45620;SDS011;31345;51.522;10.702;2023-05-10T10:48:49;5.30;;;4.00;;
45620;SDS011;31345;51.522;10.702;2023-05-10T10:51:36;3.90;;;3.10;;
45620;SDS011;31345;51.522;10.702;2023-05-10T10:54:12;4.60;;;2.92;;
45620;SDS011;31345;51.522;10.702;2023-05-10T10:56:40;3.13;;;2.40;;
45620;SDS011;31345;51.522;10.702;2023-05-10T10:59:14;3.33;;;1.60;;
45620;SDS011;31345;51.522;10.702;2023-05-10T11:04:28;3.97;;;2.35;;
45620;SDS011;31345;51.522;10.702;2023-05-10T11:07:16;3.97;;;2.20;;
45620;SDS011;31345;51.522;10.702;2023-05-10T11:09:48;2.72;;;1.55;;
45620;SDS011;31345;51.522;10.702;2023-05-10T11:12:16;2.00;;;1.25;;
45620;SDS011;31345;51.522;10.702;2023-05-10T11:14:50;2.13;;;1.45;;
45620;SDS011;31345;51.522;10.702;2023-05-10T11:17:24;1.27;;;0.80;;
45620;SDS011;31345;51.522;10.702;2023-05-10T11:20:06;1.30;;;0.88;;
45620;SDS011;31345;51.522;10.702;2023-05-10T11:22:50;1.55;;;0.82;;
45620;SDS011;31345;51.522;10.702;2023-05-10T11:25:22;1.30;;;0.90;;
45620;SDS011;31345;51.522;10.702;2023-05-10T11:27:54;1.20;;;0.80;;
45620;SDS011;31345;51.522;10.702;2023-05-10T11:30:28;0.82;;;0.63;;
45620;SDS011;31345;51.522;10.702;2023-05-10T11:33:02;2.33;;;0.90;;
45620;SDS011;31345;51.522;10.702;2023-05-10T11:35:39;1.45;;;0.90;;
45620;SDS011;31345;51.522;10.702;2023-05-10T11:38:13;1.40;;;0.85;;
45620;SDS011;31345;51.522;10.702;2023-05-10T11:40:49;2.10;;;0.90;;
45620;SDS011;31345;51.522;10.702;2023-05-10T11:43:23;1.42;;;1.00;;
45620;SDS011;31345;51.522;10.702;2023-05-10T11:45:56;1.38;;;0.80;;
45620;SDS011;31345;51.522;10.702;2023-05-10T11:48:30;3.47;;;1.08;;
45620;SDS011;31345;51.522;10.702;2023-05-10T11:50:57;1.48;;;1.13;;
45620;SDS011;31345;51.522;10.702;2023-05-10T11:53:31;2.65;;;1.30;;
45620;SDS011;31345;51.522;10.702;2023-05-10T11:56:07;1.48;;;0.95;;
45620;SDS011;31345;51.522;10.702;2023-05-10T11:58:41;2.53;;;0.90;;
45620;SDS011;31345;51.522;10.702;2023-05-10T12:01:15;1.60;;;1.02;;
45620;SDS011;31345;51.522;10.702;2023-05-10T12:03:48;1.75;;;1.05;;
45620;SDS011;31345;51.522;10.702;2023-05-10T12:06:16;2.20;;;0.82;;
45620;SDS011;31345;51.522;10.702;2023-05-10T12:08:44;1.92;;;0.70;;
45620;SDS011;31345;51.522;10.702;2023-05-10T12:11:16;1.40;;;0.60;;
45620;SDS011;31345;51.522;10.702;2023-05-10T12:16:18;0.95;;;0.65;;
45620;SDS011;31345;51.522;10.702;2023-05-10T12:18:48;0.75;;;0.40;;
45620;SDS011;31345;51.522;10.702;2023-05-10T12:21:16;1.90;;;0.50;;
45620;SDS011;31345;51.522;10.702;2023-05-10T12:23:46;0.85;;;0.60;;
45620;SDS011;31345;51.522;10.702;2023-05-10T12:26:22;0.60;;;0.40;;
45620;SDS011;31345;51.522;10.702;2023-05-10T12:28:50;1.02;;;0.50;;
45620;SDS011;31345;51.522;10.702;2023-05-10T12:31:18;0.70;;;0.60;;
45620;SDS011;31345;51.522;10.702;2023-05-10T12:33:45;2.42;;;0.70;;
45620;SDS011;31345;51.522;10.702;2023-05-10T12:36:15;0.90;;;0.70;;
45620;SDS011;31345;51.522;10.702;2023-05-10T12:38:44;1.05;;;0.60;;
45620;SDS011;31345;51.522;10.702;2023-05-10T12:41:14;2.72;;;0.80;;
45620;SDS011;31345;51.522;10.702;2023-05-10T12:43:45;0.80;;;0.60;;
45620;SDS011;31345;51.522;10.702;2023-05-10T12:46:13;1.15;;;0.68;;
45620;SDS011;31345;51.522;10.702;2023-05-10T12:59:18;1.95;;;0.77;;
45620;SDS011;31345;51.522;10.702;2023-05-10T13:01:50;1.15;;;0.60;;
45620;SDS011;31345;51.522;10.702;2023-05-10T13:04:23;1.05;;;0.60;;
45620;SDS011;31345;51.522;10.702;2023-05-10T13:06:55;1.25;;;0.70;;
45620;SDS011;31345;51.522;10.702;2023-05-10T13:09:24;3.90;;;0.82;;
45620;SDS011;31345;51.522;10.702;2023-05-10T13:11:57;1.80;;;0.70;;
45620;SDS011;31345;51.522;10.702;2023-05-10T13:14:31;1.05;;;0.65;;
45620;SDS011;31345;51.522;10.702;2023-05-10T13:17:03;1.58;;;0.77;;
45620;SDS011;31345;51.522;10.702;2023-05-10T13:19:36;1.67;;;0.85;;
45620;SDS011;31345;51.522;10.702;2023-05-10T13:22:08;2.10;;;0.45;;
45620;SDS011;31345;51.522;10.702;2023-05-10T13:24:40;2.22;;;0.50;;
45620;SDS011;31345;51.522;10.702;2023-05-10T13:27:13;2.22;;;0.85;;
45620;SDS011;31345;51.522;10.702;2023-05-10T13:29:47;1.65;;;0.65;;
45620;SDS011;31345;51.522;10.702;2023-05-10T13:32:19;1.13;;;0.52;;
45620;SDS011;31345;51.522;10.702;2023-05-10T13:34:51;0.75;;;0.50;;
45620;SDS011;31345;51.522;10.702;2023-05-10T13:37:24;0.73;;;0.45;;
45620;SDS011;31345;51.522;10.702;2023-05-10T13:39:57;0.88;;;0.50;;
45620;SDS011;31345;51.522;10.702;2023-05-10T13:42:29;2.15;;;0.55;;
45620;SDS011;31345;51.522;10.702;2023-05-10T13:45:04;1.38;;;0.50;;
45620;SDS011;31345;51.522;10.702;2023-05-10T13:47:37;6.15;;;2.15;;
45620;SDS011;31345;51.522;10.702;2023-05-10T13:50:10;1.13;;;0.60;;
45620;SDS011;31345;51.522;10.702;2023-05-10T13:52:42;1.58;;;0.70;;
45620;SDS011;31345;51.522;10.702;2023-05-10T13:55:14;1.95;;;0.55;;
45620;SDS011;31345;51.522;10.702;2023-05-10T13:57:47;2.45;;;0.70;;
45620;SDS011;31345;51.522;10.702;2023-05-10T14:00:21;2.05;;;0.70;;
45620;SDS011;31345;51.522;10.702;2023-05-10T14:02:53;10.15;;;1.30;;
45620;SDS011;31345;51.522;10.702;2023-05-10T14:05:26;2.42;;;0.57;;
45620;SDS011;31345;51.522;10.702;2023-05-10T14:08:00;1.23;;;0.70;;
45620;SDS011;31345;51.522;10.702;2023-05-10T14:10:34;0.65;;;0.43;;
45620;SDS011;31345;51.522;10.702;2023-05-10T14:13:07;1.45;;;0.80;;
45620;SDS011;31345;51.522;10.702;2023-05-10T14:15:41;1.20;;;0.68;;
45620;SDS011;31345;51.522;10.702;2023-05-10T14:18:13;2.60;;;0.60;;
45620;SDS011;31345;51.522;10.702;2023-05-10T14:20:46;1.52;;;0.80;;
45620;SDS011;31345;51.522;10.702;2023-05-10T14:23:19;1.48;;;0.50;;
45620;SDS011;31345;51.522;10.702;2023-05-10T14:25:54;2.47;;;0.60;;
45620;SDS011;31345;51.522;10.702;2023-05-10T14:28:27;1.15;;;0.47;;
45620;SDS011;31345;51.522;10.702;2023-05-10T14:31:01;0.65;;;0.45;;
45620;SDS011;31345;51.522;10.702;2023-05-10T14:33:28;4.13;;;0.90;;
45620;SDS011;31345;51.522;10.702;2023-05-10T14:36:01;2.65;;;0.65;;
45620;SDS011;31345;51.522;10.702;2023-05-10T14:38:34;0.70;;;0.47;;
45620;SDS011;31345;51.522;10.702;2023-05-10T14:41:06;1.48;;;0.50;;
45620;SDS011;31345;51.522;10.702;2023-05-10T14:43:39;2.35;;;0.75;;
45620;SDS011;31345;51.522;10.702;2023-05-10T14:46:13;1.00;;;0.70;;
45620;SDS011;31345;51.522;10.702;2023-05-10T14:48:46;1.27;;;0.70;;
45620;SDS011;31345;51.522;10.702;2023-05-10T14:51:19;0.98;;;0.70;;
45620;SDS011;31345;51.522;10.702;2023-05-10T14:53:52;1.52;;;0.70;;
45620;SDS011;31345;51.522;10.702;2023-05-10T14:56:20;3.25;;;0.63;;
45620;SDS011;31345;51.522;10.702;2023-05-10T14:58:53;1.95;;;0.80;;
45620;SDS011;31345;51.522;10.702;2023-05-10T15:01:26;2.25;;;1.00;;
45620;SDS011;31345;51.522;10.702;2023-05-10T15:03:59;3.67;;;1.05;;
45620;SDS011;31345;51.522;10.702;2023-05-10T15:06:32;1.95;;;1.20;;
45620;SDS011;31345;51.522;10.702;2023-05-10T15:09:06;1.20;;;0.68;;
45620;SDS011;31345;51.522;10.702;2023-05-10T15:11:38;3.92;;;3.03;;
45620;SDS011;31345;51.522;10.702;2023-05-10T15:14:10;4.95;;;2.70;;
45620;SDS011;31345;51.522;10.702;2023-05-10T15:16:44;2.30;;;0.80;;
45620;SDS011;31345;51.522;10.702;2023-05-10T15:19:17;4.47;;;1.58;;
45620;SDS011;31345;51.522;10.702;2023-05-10T15:21:50;1.80;;;0.70;;
45620;SDS011;31345;51.522;10.702;2023-05-10T15:24:22;2.97;;;0.95;;